Portada
METAR-TAF:

METAR-TAF

Aeroports :

Tuscaloosa, Alabama, Estats Units d'Amèrica

latitud: 33-12-43N, longitud: 087-36-57W, altitud: 52 m

Observació

L'informe es va fer fa 52 minuts, a les 05:53 UTC
Vent calma
Temperatura 19°C
Humitat 94%
Pressió 1014 hPa
Visibilitat: 16.1 km
Cel clar

METAR: KTCL 130553Z AUTO 00000KT 10SM CLR 19/18 A2993 RMK AO2 SLP131 T01940183 10294 20194 403060161 58006

Hora: 01:45 (06:45 UTC)

Pronòstic

L'informe es va fer fa 1 hora i 25 minuts, a les 05:20 UTC
Pronòstic vàlid del 13 a les 06 UTC al 14 a les 06 UTC
Vent 3 kt amb direcció variable
Visibilitat: 10 km
Cel clar

TAF: KTCL 130520Z 1306/1406 VRB03KT P6SM SKC

Observacions i pronòstics meteorològics de més de 4000 aeroports (METAR i TAF).

Les estacions disponibles són els punts grocs i vermells al mapa.

Posi el ratolí al punt desitjat per veure el nom de l'estació.

Feu clic per veure les observacions i els pronòstics meteorològics.

Per canviar el mapa: feu clic els botons verds amb una creu de color negre per apropar; al botó verd amb un guió per allunyar la imatge; o en les fletxes verdes per a mapes adjacents.


METAR-TAF: